sensor_id;sensor_type;location;lat;lon;timestamp;pressure;altitude;pressure_sealevel;temperature;humidity
13709;BME280;54933;51.908;7.730;2022-10-22T00:01:27;100378.22;;;21.79;91.44
13709;BME280;54933;51.908;7.730;2022-10-22T00:03:53;100380.94;;;21.79;91.37
13709;BME280;54933;51.908;7.730;2022-10-22T00:06:18;100384.47;;;21.79;91.41
13709;BME280;54933;51.908;7.730;2022-10-22T00:08:44;100390.72;;;21.80;91.25
13709;BME280;54933;51.908;7.730;2022-10-22T00:11:14;100390.72;;;21.80;91.22
13709;BME280;54933;51.908;7.730;2022-10-22T00:13:40;100389.88;;;21.79;91.22
13709;BME280;54933;51.908;7.730;2022-10-22T00:16:06;100390.72;;;21.80;91.03
13709;BME280;54933;51.908;7.730;2022-10-22T00:18:32;100395.28;;;21.79;91.10
13709;BME280;54933;51.908;7.730;2022-10-22T00:20:57;100390.72;;;21.80;91.32
13709;BME280;54933;51.908;7.730;2022-10-22T00:23:22;100389.88;;;21.79;91.21
13709;BME280;54933;51.908;7.730;2022-10-22T00:25:47;100383.63;;;21.79;91.50
13709;BME280;54933;51.908;7.730;2022-10-22T00:28:13;100386.34;;;21.79;91.06
13709;BME280;54933;51.908;7.730;2022-10-22T00:30:39;100382.81;;;21.78;91.33
13709;BME280;54933;51.908;7.730;2022-10-22T00:33:04;100390.91;;;21.78;91.33
13709;BME280;54933;51.908;7.730;2022-10-22T00:35:29;100400.69;;;21.79;91.25
13709;BME280;54933;51.908;7.730;2022-10-22T00:37:54;100405.28;;;21.79;91.35
13709;BME280;54933;51.908;7.730;2022-10-22T00:40:20;100405.28;;;21.79;91.13
13709;BME280;54933;51.908;7.730;2022-10-22T00:42:45;100408.22;;;21.77;91.30
13709;BME280;54933;51.908;7.730;2022-10-22T00:47:38;100406.09;;;21.79;91.22
13709;BME280;54933;51.908;7.730;2022-10-22T00:50:09;100405.28;;;21.79;91.25
13709;BME280;54933;51.908;7.730;2022-10-22T00:52:35;100409.03;;;21.78;91.13
13709;BME280;54933;51.908;7.730;2022-10-22T00:55:01;100422.34;;;21.79;91.28
13709;BME280;54933;51.908;7.730;2022-10-22T00:57:26;100409.84;;;21.78;91.23
13709;BME280;54933;51.908;7.730;2022-10-22T00:59:53;100418.78;;;21.79;91.34
13709;BME280;54933;51.908;7.730;2022-10-22T01:02:19;100418.78;;;21.79;91.17
13709;BME280;54933;51.908;7.730;2022-10-22T01:04:45;100413.38;;;21.79;91.16
13709;BME280;54933;51.908;7.730;2022-10-22T01:07:16;100422.34;;;21.79;91.24
13709;BME280;54933;51.908;7.730;2022-10-22T01:09:48;100419.84;;;21.78;91.13
13709;BME280;54933;51.908;7.730;2022-10-22T01:12:27;100416.31;;;21.77;90.98
13709;BME280;54933;51.908;7.730;2022-10-22T01:17:59;100398.22;;;21.78;91.51
13709;BME280;54933;51.908;7.730;2022-10-22T01:21:19;100399.84;;;21.79;90.86
13709;BME280;54933;51.908;7.730;2022-10-22T01:26:34;100405.28;;;21.79;90.97
13709;BME280;54933;51.908;7.730;2022-10-22T01:31:42;100396.13;;;21.80;90.75
13709;BME280;54933;51.908;7.730;2022-10-22T01:34:13;100394.44;;;21.79;90.67
13709;BME280;54933;51.908;7.730;2022-10-22T01:36:39;100391.75;;;21.79;90.83
13709;BME280;54933;51.908;7.730;2022-10-22T01:39:06;100388.00;;;21.80;90.95
13709;BME280;54933;51.908;7.730;2022-10-22T01:41:33;100389.03;;;21.79;90.89
13709;BME280;54933;51.908;7.730;2022-10-22T01:43:58;100386.34;;;21.79;90.85
13709;BME280;54933;51.908;7.730;2022-10-22T01:46:26;100391.75;;;21.79;90.59
13709;BME280;54933;51.908;7.730;2022-10-22T01:49:11;100395.28;;;21.79;90.88
13709;BME280;54933;51.908;7.730;2022-10-22T01:52:04;100388.00;;;21.80;90.57
13709;BME280;54933;51.908;7.730;2022-10-22T01:54:39;100388.81;;;21.80;91.01
13709;BME280;54933;51.908;7.730;2022-10-22T02:00:05;100400.47;;;21.81;90.59
13709;BME280;54933;51.908;7.730;2022-10-22T02:05:07;100396.91;;;21.80;90.47
13709;BME280;54933;51.908;7.730;2022-10-22T02:07:47;100383.41;;;21.80;90.95
13709;BME280;54933;51.908;7.730;2022-10-22T02:10:15;100386.09;;;21.80;90.59
13709;BME280;54933;51.908;7.730;2022-10-22T02:12:42;100393.19;;;21.81;90.36
13709;BME280;54933;51.908;7.730;2022-10-22T02:15:09;100375.28;;;21.80;90.56
13709;BME280;54933;51.908;7.730;2022-10-22T02:17:36;100374.47;;;21.80;90.86
13709;BME280;54933;51.908;7.730;2022-10-22T02:20:16;100364.47;;;21.80;90.72
13709;BME280;54933;51.908;7.730;2022-10-22T02:22:42;100362.59;;;21.81;90.59
13709;BME280;54933;51.908;7.730;2022-10-22T02:25:08;100369.88;;;21.80;90.54
13709;BME280;54933;51.908;7.730;2022-10-22T02:27:45;100364.47;;;21.80;90.80
13709;BME280;54933;51.908;7.730;2022-10-22T02:30:16;100369.06;;;21.80;90.69
13709;BME280;54933;51.908;7.730;2022-10-22T02:32:53;100370.72;;;21.81;90.78
13709;BME280;54933;51.908;7.730;2022-10-22T02:35:22;100355.56;;;21.80;90.58
13709;BME280;54933;51.908;7.730;2022-10-22T02:37:49;100363.44;;;21.81;90.48
13709;BME280;54933;51.908;7.730;2022-10-22T02:40:16;100374.00;;;21.83;90.44
13709;BME280;54933;51.908;7.730;2022-10-22T02:42:42;100362.13;;;21.84;90.51
13709;BME280;54933;51.908;7.730;2022-10-22T02:45:08;100370.84;;;21.86;90.46
13709;BME280;54933;51.908;7.730;2022-10-22T02:47:34;100370.25;;;21.84;90.36
13709;BME280;54933;51.908;7.730;2022-10-22T02:49:59;100364.84;;;21.84;90.38
13709;BME280;54933;51.908;7.730;2022-10-22T02:52:24;100372.72;;;21.85;90.12
13709;BME280;54933;51.908;7.730;2022-10-22T02:54:50;100382.94;;;21.83;90.24
13709;BME280;54933;51.908;7.730;2022-10-22T02:57:15;100382.13;;;21.83;90.18
13709;BME280;54933;51.908;7.730;2022-10-22T02:59:40;100390.25;;;21.83;90.23
13709;BME280;54933;51.908;7.730;2022-10-22T03:02:05;100391.88;;;21.84;89.85
13709;BME280;54933;51.908;7.730;2022-10-22T03:04:31;100387.53;;;21.83;90.04
13709;BME280;54933;51.908;7.730;2022-10-22T03:06:56;100400.22;;;21.82;90.25
13709;BME280;54933;51.908;7.730;2022-10-22T03:09:21;100399.41;;;21.82;90.00
13709;BME280;54933;51.908;7.730;2022-10-22T03:11:46;100399.41;;;21.82;90.02
13709;BME280;54933;51.908;7.730;2022-10-22T03:14:12;100395.06;;;21.81;90.28
13709;BME280;54933;51.908;7.730;2022-10-22T03:16:37;100392.34;;;21.81;90.05
13709;BME280;54933;51.908;7.730;2022-10-22T03:19:02;100395.88;;;21.81;90.05
13709;BME280;54933;51.908;7.730;2022-10-22T03:21:37;100393.97;;;21.82;90.26
13709;BME280;54933;51.908;7.730;2022-10-22T03:24:17;100402.34;;;21.80;90.16
13709;BME280;54933;51.908;7.730;2022-10-22T03:26:43;100396.91;;;21.80;90.24
13709;BME280;54933;51.908;7.730;2022-10-22T03:29:11;100398.59;;;21.81;90.08
13709;BME280;54933;51.908;7.730;2022-10-22T03:31:38;100401.28;;;21.81;90.16
13709;BME280;54933;51.908;7.730;2022-10-22T03:34:03;100391.50;;;21.80;90.17
13709;BME280;54933;51.908;7.730;2022-10-22T03:36:29;100396.91;;;21.80;90.12
13709;BME280;54933;51.908;7.730;2022-10-22T03:38:55;100400.47;;;21.81;90.27
13709;BME280;54933;51.908;7.730;2022-10-22T03:41:21;100408.56;;;21.81;90.19
13709;BME280;54933;51.908;7.730;2022-10-22T03:43:46;100396.13;;;21.80;90.13
13709;BME280;54933;51.908;7.730;2022-10-22T03:46:15;100401.53;;;21.80;90.09
13709;BME280;54933;51.908;7.730;2022-10-22T03:48:40;100398.81;;;21.80;90.15
13709;BME280;54933;51.908;7.730;2022-10-22T03:51:06;100408.56;;;21.81;90.18
13709;BME280;54933;51.908;7.730;2022-10-22T03:53:31;100400.47;;;21.81;89.94
13709;BME280;54933;51.908;7.730;2022-10-22T03:55:56;100409.41;;;21.81;90.36
13709;BME280;54933;51.908;7.730;2022-10-22T03:58:22;100416.69;;;21.81;89.89
13709;BME280;54933;51.908;7.730;2022-10-22T04:00:47;100406.94;;;21.80;90.06
13709;BME280;54933;51.908;7.730;2022-10-22T04:03:12;100409.41;;;21.81;89.89
13709;BME280;54933;51.908;7.730;2022-10-22T04:05:37;100405.88;;;21.81;90.03
13709;BME280;54933;51.908;7.730;2022-10-22T04:08:03;100408.56;;;21.81;89.71
13709;BME280;54933;51.908;7.730;2022-10-22T04:10:28;100406.94;;;21.80;90.01
13709;BME280;54933;51.908;7.730;2022-10-22T04:12:53;100408.56;;;21.81;89.77
13709;BME280;54933;51.908;7.730;2022-10-22T04:15:19;100409.41;;;21.81;89.86
13709;BME280;54933;51.908;7.730;2022-10-22T04:17:44;100411.28;;;21.81;90.00
13709;BME280;54933;51.908;7.730;2022-10-22T04:20:10;100422.94;;;21.81;89.77
13709;BME280;54933;51.908;7.730;2022-10-22T04:22:35;100412.13;;;21.81;89.78
13709;BME280;54933;51.908;7.730;2022-10-22T04:25:01;100415.84;;;21.80;89.75
13709;BME280;54933;51.908;7.730;2022-10-22T04:27:31;100425.63;;;21.81;90.01
13709;BME280;54933;51.908;7.730;2022-10-22T04:29:57;100419.41;;;21.81;89.82
13709;BME280;54933;51.908;7.730;2022-10-22T04:32:22;100425.63;;;21.81;90.04
13709;BME280;54933;51.908;7.730;2022-10-22T04:34:47;100430.22;;;21.81;89.38
13709;BME280;54933;51.908;7.730;2022-10-22T04:37:13;100435.63;;;21.81;89.57
13709;BME280;54933;51.908;7.730;2022-10-22T04:39:38;100427.50;;;21.81;89.80
13709;BME280;54933;51.908;7.730;2022-10-22T04:42:03;100442.66;;;21.82;89.66
13709;BME280;54933;51.908;7.730;2022-10-22T04:44:29;100445.59;;;21.80;89.71
13709;BME280;54933;51.908;7.730;2022-10-22T04:46:54;100431.28;;;21.80;89.85
13709;BME280;54933;51.908;7.730;2022-10-22T04:49:19;100441.88;;;21.81;89.89
13709;BME280;54933;51.908;7.730;2022-10-22T04:51:45;100434.78;;;21.80;90.03
13709;BME280;54933;51.908;7.730;2022-10-22T04:54:10;100428.56;;;21.80;89.76
13709;BME280;54933;51.908;7.730;2022-10-22T04:56:35;100435.63;;;21.81;89.77
13709;BME280;54933;51.908;7.730;2022-10-22T04:59:04;100437.25;;;21.82;89.71
13709;BME280;54933;51.908;7.730;2022-10-22T05:01:32;100440.56;;;21.84;89.83
13709;BME280;54933;51.908;7.730;2022-10-22T05:04:00;100439.31;;;21.86;89.49
13709;BME280;54933;51.908;7.730;2022-10-22T05:06:26;100438.47;;;21.86;89.41
13709;BME280;54933;51.908;7.730;2022-10-22T05:08:54;100442.81;;;21.87;89.53
13709;BME280;54933;51.908;7.730;2022-10-22T05:11:25;100440.09;;;21.87;89.33
13709;BME280;54933;51.908;7.730;2022-10-22T05:13:54;100434.94;;;21.85;89.50
13709;BME280;54933;51.908;7.730;2022-10-22T05:16:19;100436.59;;;21.86;89.45
13709;BME280;54933;51.908;7.730;2022-10-22T05:18:44;100433.06;;;21.86;89.37
13709;BME280;54933;51.908;7.730;2022-10-22T05:21:12;100440.09;;;21.87;89.20
13709;BME280;54933;51.908;7.730;2022-10-22T05:23:38;100435.75;;;21.86;89.50
13709;BME280;54933;51.908;7.730;2022-10-22T05:26:04;100436.78;;;21.85;89.21
13709;BME280;54933;51.908;7.730;2022-10-22T05:28:30;100431.38;;;21.85;89.11
13709;BME280;54933;51.908;7.730;2022-10-22T05:30:57;100443.88;;;21.86;88.86
13709;BME280;54933;51.908;7.730;2022-10-22T05:33:22;100447.63;;;21.85;89.10
13709;BME280;54933;51.908;7.730;2022-10-22T05:35:48;100449.50;;;21.84;89.06
13709;BME280;54933;51.908;7.730;2022-10-22T05:38:14;100456.56;;;21.85;89.41
13709;BME280;54933;51.908;7.730;2022-10-22T05:40:39;100456.56;;;21.85;89.24
13709;BME280;54933;51.908;7.730;2022-10-22T05:43:05;100458.44;;;21.85;89.10
13709;BME280;54933;51.908;7.730;2022-10-22T05:45:30;100457.63;;;21.84;89.10
13709;BME280;54933;51.908;7.730;2022-10-22T05:47:55;100451.38;;;21.84;88.99
13709;BME280;54933;51.908;7.730;2022-10-22T05:50:21;100452.22;;;21.84;89.15
13709;BME280;54933;51.908;7.730;2022-10-22T05:52:46;100455.72;;;21.85;89.23
13709;BME280;54933;51.908;7.730;2022-10-22T05:55:11;100463.03;;;21.84;89.11
13709;BME280;54933;51.908;7.730;2022-10-22T05:57:38;100467.63;;;21.84;89.44
13709;BME280;54933;51.908;7.730;2022-10-22T06:00:05;100480.06;;;21.85;89.36
13709;BME280;54933;51.908;7.730;2022-10-22T06:02:30;100475.72;;;21.84;89.33
13709;BME280;54933;51.908;7.730;2022-10-22T06:04:55;100483.84;;;21.84;89.41
13709;BME280;54933;51.908;7.730;2022-10-22T06:07:21;100482.78;;;21.85;89.41
13709;BME280;54933;51.908;7.730;2022-10-22T06:09:46;100489.25;;;21.84;89.52
13709;BME280;54933;51.908;7.730;2022-10-22T06:12:14;100483.84;;;21.84;89.52
13709;BME280;54933;51.908;7.730;2022-10-22T06:14:39;100479.28;;;21.84;89.69
13709;BME280;54933;51.908;7.730;2022-10-22T06:17:05;100486.56;;;21.84;89.52
13709;BME280;54933;51.908;7.730;2022-10-22T06:19:30;100490.09;;;21.84;89.31
13709;BME280;54933;51.908;7.730;2022-10-22T06:21:55;100494.66;;;21.84;89.49
13709;BME280;54933;51.908;7.730;2022-10-22T06:24:20;100496.31;;;21.85;89.75
13709;BME280;54933;51.908;7.730;2022-10-22T06:26:49;100502.56;;;21.85;89.51
13709;BME280;54933;51.908;7.730;2022-10-22T06:29:15;100500.69;;;21.86;89.49
13709;BME280;54933;51.908;7.730;2022-10-22T06:31:40;100501.72;;;21.85;89.14
13709;BME280;54933;51.908;7.730;2022-10-22T06:34:09;100510.91;;;21.84;89.42
13709;BME280;54933;51.908;7.730;2022-10-22T06:36:35;100519.00;;;21.84;89.51
13709;BME280;54933;51.908;7.730;2022-10-22T06:39:00;100514.66;;;21.83;89.37
13709;BME280;54933;51.908;7.730;2022-10-22T06:41:25;100521.72;;;21.84;89.55
13709;BME280;54933;51.908;7.730;2022-10-22T06:43:52;100523.34;;;21.85;89.55
13709;BME280;54933;51.908;7.730;2022-10-22T06:46:19;100523.34;;;21.85;89.69
13709;BME280;54933;51.908;7.730;2022-10-22T06:48:55;100537.09;;;21.83;89.68
13709;BME280;54933;51.908;7.730;2022-10-22T06:51:21;100539.00;;;21.83;89.79
13709;BME280;54933;51.908;7.730;2022-10-22T06:53:47;100549.81;;;21.83;90.03
13709;BME280;54933;51.908;7.730;2022-10-22T06:56:15;100536.31;;;21.83;90.10
13709;BME280;54933;51.908;7.730;2022-10-22T06:58:41;100543.63;;;21.76;89.82
13709;BME280;54933;51.908;7.730;2022-10-22T07:01:12;100545.31;;;21.77;87.76
13709;BME280;54933;51.908;7.730;2022-10-22T07:03:39;100548.38;;;21.80;87.95
13709;BME280;54933;51.908;7.730;2022-10-22T07:06:07;100553.56;;;21.82;88.77
13709;BME280;54933;51.908;7.730;2022-10-22T07:08:33;100553.56;;;21.82;89.53
13709;BME280;54933;51.908;7.730;2022-10-22T07:11:26;100557.09;;;21.82;89.91
13709;BME280;54933;51.908;7.730;2022-10-22T07:13:57;100557.94;;;21.83;90.15
13709;BME280;54933;51.908;7.730;2022-10-22T07:16:23;100561.69;;;21.82;89.96
13709;BME280;54933;51.908;7.730;2022-10-22T07:18:49;100570.63;;;21.82;90.24
13709;BME280;54933;51.908;7.730;2022-10-22T07:21:16;100569.78;;;21.82;90.25
13709;BME280;54933;51.908;7.730;2022-10-22T07:23:42;100574.19;;;21.83;90.43
13709;BME280;54933;51.908;7.730;2022-10-22T07:26:07;100577.91;;;21.82;90.56
13709;BME280;54933;51.908;7.730;2022-10-22T07:28:36;100583.31;;;21.82;90.66
13709;BME280;54933;51.908;7.730;2022-10-22T07:31:04;100587.69;;;21.83;90.89
13709;BME280;54933;51.908;7.730;2022-10-22T07:33:29;100593.09;;;21.83;90.44
13709;BME280;54933;51.908;7.730;2022-10-22T07:35:59;100590.63;;;21.81;90.55
13709;BME280;54933;51.908;7.730;2022-10-22T07:38:25;100590.41;;;21.83;90.45
13709;BME280;54933;51.908;7.730;2022-10-22T07:40:50;100598.28;;;21.84;90.28
13709;BME280;54933;51.908;7.730;2022-10-22T07:43:15;100599.09;;;21.85;90.27
13709;BME280;54933;51.908;7.730;2022-10-22T07:45:41;100604.50;;;21.85;90.45
13709;BME280;54933;51.908;7.730;2022-10-22T07:48:06;100599.09;;;21.85;90.18
13709;BME280;54933;51.908;7.730;2022-10-22T07:50:32;100608.03;;;21.85;90.16
13709;BME280;54933;51.908;7.730;2022-10-22T07:52:57;100604.72;;;21.83;90.30
13709;BME280;54933;51.908;7.730;2022-10-22T07:55:22;100609.13;;;21.84;90.13
13709;BME280;54933;51.908;7.730;2022-10-22T07:57:47;100605.56;;;21.84;89.98
13709;BME280;54933;51.908;7.730;2022-10-22T08:00:13;100612.03;;;21.83;90.38
13709;BME280;54933;51.908;7.730;2022-10-22T08:02:38;100619.09;;;21.84;90.21
13709;BME280;54933;51.908;7.730;2022-10-22T08:05:04;100619.94;;;21.84;90.15
13709;BME280;54933;51.908;7.730;2022-10-22T08:07:30;100622.88;;;21.83;90.30
13709;BME280;54933;51.908;7.730;2022-10-22T08:09:55;100619.56;;;21.81;90.56
13709;BME280;54933;51.908;7.730;2022-10-22T08:12:20;100629.31;;;21.82;90.71
13709;BME280;54933;51.908;7.730;2022-10-22T08:14:45;100626.59;;;21.82;90.77
13709;BME280;54933;51.908;7.730;2022-10-22T08:17:11;100630.97;;;21.83;90.67
13709;BME280;54933;51.908;7.730;2022-10-22T08:19:36;100634.50;;;21.83;90.88
13709;BME280;54933;51.908;7.730;2022-10-22T08:22:01;100628.28;;;21.83;90.68
13709;BME280;54933;51.908;7.730;2022-10-22T08:24:27;100627.66;;;21.81;90.82
13709;BME280;54933;51.908;7.730;2022-10-22T08:26:53;100625.78;;;21.81;90.96
13709;BME280;54933;51.908;7.730;2022-10-22T08:29:21;100622.03;;;21.82;90.95
13709;BME280;54933;51.908;7.730;2022-10-22T08:31:48;100624.13;;;21.80;91.14
13709;BME280;54933;51.908;7.730;2022-10-22T08:34:14;100623.91;;;21.82;91.17
13709;BME280;54933;51.908;7.730;2022-10-22T08:36:39;100628.50;;;21.81;91.15
13709;BME280;54933;51.908;7.730;2022-10-22T08:39:04;100632.00;;;21.82;91.02
13709;BME280;54933;51.908;7.730;2022-10-22T08:41:30;100637.41;;;21.82;91.07
13709;BME280;54933;51.908;7.730;2022-10-22T08:44:10;100638.25;;;21.82;91.24
13709;BME280;54933;51.908;7.730;2022-10-22T08:46:50;100638.25;;;21.82;91.17
13709;BME280;54933;51.908;7.730;2022-10-22T08:49:22;100642.03;;;21.81;91.23
13709;BME280;54933;51.908;7.730;2022-10-22T08:51:49;100638.25;;;21.82;91.46
13709;BME280;54933;51.908;7.730;2022-10-22T08:54:46;100639.09;;;21.83;91.03
13709;BME280;54933;51.908;7.730;2022-10-22T09:00:35;100650.94;;;21.82;91.45
13709;BME280;54933;51.908;7.730;2022-10-22T09:08:16;100664.47;;;21.82;91.44
13709;BME280;54933;51.908;7.730;2022-10-22T09:10:48;100665.31;;;21.82;91.64
13709;BME280;54933;51.908;7.730;2022-10-22T09:13:17;100670.72;;;21.82;91.27
13709;BME280;54933;51.908;7.730;2022-10-22T09:15:46;100672.59;;;21.82;91.44
13709;BME280;54933;51.908;7.730;2022-10-22T09:18:34;100668.84;;;21.83;91.71
13709;BME280;54933;51.908;7.730;2022-10-22T09:23:51;100673.44;;;21.82;91.57
13709;BME280;54933;51.908;7.730;2022-10-22T09:26:20;100682.38;;;21.83;91.42
13709;BME280;54933;51.908;7.730;2022-10-22T09:28:49;100677.78;;;21.83;91.56
13709;BME280;54933;51.908;7.730;2022-10-22T09:31:15;100684.00;;;21.84;91.72
13709;BME280;54933;51.908;7.730;2022-10-22T09:33:41;100691.06;;;21.85;91.64
13709;BME280;54933;51.908;7.730;2022-10-22T09:36:12;100686.72;;;21.84;91.30
13709;BME280;54933;51.908;7.730;2022-10-22T09:38:44;100683.19;;;21.83;91.58
13709;BME280;54933;51.908;7.730;2022-10-22T09:41:10;100686.50;;;21.85;91.55
13709;BME280;54933;51.908;7.730;2022-10-22T09:43:36;100690.66;;;21.88;91.26
13709;BME280;54933;51.908;7.730;2022-10-22T09:46:05;100688.97;;;21.87;91.22
13709;BME280;54933;51.908;7.730;2022-10-22T09:48:36;100690.66;;;21.88;91.42
13709;BME280;54933;51.908;7.730;2022-10-22T09:51:24;100694.16;;;21.88;91.35
13709;BME280;54933;51.908;7.730;2022-10-22T09:54:01;100694.16;;;21.88;91.40
13709;BME280;54933;51.908;7.730;2022-10-22T09:56:39;100696.28;;;21.86;91.53
13709;BME280;54933;51.908;7.730;2022-10-22T09:59:13;100703.56;;;21.86;91.38
13709;BME280;54933;51.908;7.730;2022-10-22T10:01:39;100704.41;;;21.86;91.21
13709;BME280;54933;51.908;7.730;2022-10-22T10:04:11;100716.03;;;21.87;91.57
13709;BME280;54933;51.908;7.730;2022-10-22T10:06:39;100714.38;;;21.86;91.78
13709;BME280;54933;51.908;7.730;2022-10-22T10:09:23;100712.72;;;21.85;91.62
13709;BME280;54933;51.908;7.730;2022-10-22T10:12:01;100722.50;;;21.86;91.47
13709;BME280;54933;51.908;7.730;2022-10-22T10:14:44;100723.34;;;21.86;91.69
13709;BME280;54933;51.908;7.730;2022-10-22T10:17:26;100725.22;;;21.86;91.68
13709;BME280;54933;51.908;7.730;2022-10-22T10:23:12;100730.63;;;21.86;91.52
13709;BME280;54933;51.908;7.730;2022-10-22T10:25:57;100729.78;;;21.85;91.82
13709;BME280;54933;51.908;7.730;2022-10-22T10:28:53;100741.44;;;21.86;91.74
13709;BME280;54933;51.908;7.730;2022-10-22T10:37:19;100739.56;;;21.86;91.76
13709;BME280;54933;51.908;7.730;2022-10-22T10:40:09;100748.50;;;21.87;92.01
13709;BME280;54933;51.908;7.730;2022-10-22T10:42:43;100751.41;;;21.85;91.83
13709;BME280;54933;51.908;7.730;2022-10-22T10:45:25;100748.72;;;21.85;92.16
13709;BME280;54933;51.908;7.730;2022-10-22T10:53:53;100754.97;;;21.86;92.23
13709;BME280;54933;51.908;7.730;2022-10-22T10:56:55;100760.97;;;21.88;92.22
13709;BME280;54933;51.908;7.730;2022-10-22T11:02:38;100765.56;;;21.87;92.23
13709;BME280;54933;51.908;7.730;2022-10-22T11:13:16;100767.41;;;21.87;92.35
13709;BME280;54933;51.908;7.730;2022-10-22T11:15:49;100758.50;;;21.86;92.54
13709;BME280;54933;51.908;7.730;2022-10-22T11:18:25;100769.50;;;21.85;92.72
13709;BME280;54933;51.908;7.730;2022-10-22T11:21:04;100758.69;;;21.85;92.77
13709;BME280;54933;51.908;7.730;2022-10-22T11:23:39;100773.06;;;21.85;92.48
13709;BME280;54933;51.908;7.730;2022-10-22T11:26:11;100765.78;;;21.86;92.51
13709;BME280;54933;51.908;7.730;2022-10-22T11:28:46;100762.00;;;21.87;92.40
13709;BME280;54933;51.908;7.730;2022-10-22T11:31:17;100762.00;;;21.87;92.58
13709;BME280;54933;51.908;7.730;2022-10-22T11:33:53;100762.84;;;21.87;92.60
13709;BME280;54933;51.908;7.730;2022-10-22T11:36:23;100768.03;;;21.89;92.43
13709;BME280;54933;51.908;7.730;2022-10-22T11:38:51;100772.63;;;21.88;92.43
13709;BME280;54933;51.908;7.730;2022-10-22T11:41:21;100767.19;;;21.88;92.45
13709;BME280;54933;51.908;7.730;2022-10-22T11:49:00;100768.03;;;21.89;92.51
13709;BME280;54933;51.908;7.730;2022-10-22T11:51:36;100770.75;;;21.89;92.55
13709;BME280;54933;51.908;7.730;2022-10-22T11:54:29;100780.16;;;21.86;92.51
13709;BME280;54933;51.908;7.730;2022-10-22T12:04:51;100767.19;;;21.88;92.41
13709;BME280;54933;51.908;7.730;2022-10-22T12:07:38;100779.31;;;21.86;92.44
13709;BME280;54933;51.908;7.730;2022-10-22T12:10:21;100784.72;;;21.86;92.66
13709;BME280;54933;51.908;7.730;2022-10-22T12:12:57;100778.25;;;21.87;93.00
13709;BME280;54933;51.908;7.730;2022-10-22T12:15:26;100781.19;;;21.85;92.79
13709;BME280;54933;51.908;7.730;2022-10-22T12:18:04;100787.44;;;21.86;92.87
13709;BME280;54933;51.908;7.730;2022-10-22T12:20:30;100787.44;;;21.86;92.85
13709;BME280;54933;51.908;7.730;2022-10-22T12:22:57;100789.50;;;21.84;92.88
13709;BME280;54933;51.908;7.730;2022-10-22T12:25:25;100795.53;;;21.86;92.95
13709;BME280;54933;51.908;7.730;2022-10-22T12:27:59;100804.69;;;21.85;93.17
13709;BME280;54933;51.908;7.730;2022-10-22T12:30:34;100792.22;;;21.84;93.01
13709;BME280;54933;51.908;7.730;2022-10-22T12:33:05;100792.22;;;21.84;92.89
13709;BME280;54933;51.908;7.730;2022-10-22T12:35:41;100801.19;;;21.84;92.95
13709;BME280;54933;51.908;7.730;2022-10-22T12:38:13;100796.78;;;21.83;92.91
13709;BME280;54933;51.908;7.730;2022-10-22T12:40:40;100801.41;;;21.83;93.21
13709;BME280;54933;51.908;7.730;2022-10-22T12:43:12;100796.78;;;21.83;92.95
13709;BME280;54933;51.908;7.730;2022-10-22T12:45:38;100789.50;;;21.84;92.95
13709;BME280;54933;51.908;7.730;2022-10-22T12:48:10;100790.34;;;21.84;93.08
13709;BME280;54933;51.908;7.730;2022-10-22T12:50:41;100794.94;;;21.84;92.98
13709;BME280;54933;51.908;7.730;2022-10-22T12:53:34;100785.75;;;21.85;92.91
13709;BME280;54933;51.908;7.730;2022-10-22T12:56:25;100785.75;;;21.85;92.99
13709;BME280;54933;51.908;7.730;2022-10-22T13:01:48;100783.03;;;21.85;92.94
13709;BME280;54933;51.908;7.730;2022-10-22T13:07:03;100774.13;;;21.84;92.96
13709;BME280;54933;51.908;7.730;2022-10-22T13:09:40;100779.53;;;21.84;92.97
13709;BME280;54933;51.908;7.730;2022-10-22T13:12:06;100781.41;;;21.84;93.06
13709;BME280;54933;51.908;7.730;2022-10-22T13:14:37;100777.63;;;21.85;93.21
13709;BME280;54933;51.908;7.730;2022-10-22T13:22:26;100783.03;;;21.85;92.90
13709;BME280;54933;51.908;7.730;2022-10-22T13:24:52;100785.75;;;21.85;92.91
13709;BME280;54933;51.908;7.730;2022-10-22T13:27:17;100785.75;;;21.85;93.12
13709;BME280;54933;51.908;7.730;2022-10-22T13:29:43;100788.44;;;21.85;93.41
13709;BME280;54933;51.908;7.730;2022-10-22T13:32:24;100776.00;;;21.84;93.16
13709;BME280;54933;51.908;7.730;2022-10-22T13:34:51;100783.03;;;21.85;93.12
13709;BME280;54933;51.908;7.730;2022-10-22T13:37:16;100789.28;;;21.85;93.25
13709;BME280;54933;51.908;7.730;2022-10-22T13:39:41;100791.16;;;21.85;93.23
13709;BME280;54933;51.908;7.730;2022-10-22T13:42:13;100783.03;;;21.85;93.16
13709;BME280;54933;51.908;7.730;2022-10-22T13:44:38;100776.00;;;21.84;93.24
13709;BME280;54933;51.908;7.730;2022-10-22T13:47:13;100788.44;;;21.85;93.20
13709;BME280;54933;51.908;7.730;2022-10-22T13:49:42;100783.03;;;21.85;93.39
13709;BME280;54933;51.908;7.730;2022-10-22T13:52:10;100788.44;;;21.85;93.29
13709;BME280;54933;51.908;7.730;2022-10-22T13:54:40;100791.16;;;21.85;93.22
13709;BME280;54933;51.908;7.730;2022-10-22T13:57:08;100791.78;;;21.87;92.70
13709;BME280;54933;51.908;7.730;2022-10-22T13:59:34;100795.53;;;21.86;93.38
13709;BME280;54933;51.908;7.730;2022-10-22T14:01:59;100795.53;;;21.86;93.28
13709;BME280;54933;51.908;7.730;2022-10-22T14:04:39;100803.22;;;21.89;93.13
13709;BME280;54933;51.908;7.730;2022-10-22T14:07:14;100807.56;;;21.90;92.84
13709;BME280;54933;51.908;7.730;2022-10-22T14:09:41;100812.16;;;21.89;93.02
13709;BME280;54933;51.908;7.730;2022-10-22T14:12:15;100812.97;;;21.90;92.97
13709;BME280;54933;51.908;7.730;2022-10-22T14:14:41;100807.56;;;21.90;92.93
13709;BME280;54933;51.908;7.730;2022-10-22T14:17:12;100812.16;;;21.89;92.77
13709;BME280;54933;51.908;7.730;2022-10-22T14:19:44;100819.22;;;21.90;92.82